PWSweather.com
Personal Weather Stations
Station Observations
SHAHALMS1
Eftra, Falkenberg, HA

EftraFalkenberg, HA

Lat: 56.85, Lon: 12.65

Elevation: 140

Station Type:

http://hem.passagen.se/risarp101

High Low Average
Temperature 65.7°F18.7°C 50.0°F10.0°C 59.4°F15.2°C
Dew Point 51.2°F10.7°C 42.7°F5.9°C 46.7°F8.2°C
Winds 7.8 mph 12.6 kmh Calm Calm 4.0 mph WSW6.4 kmh WSW
Wind Gusts 24.3 mph39.1 kmh -- 12.0 mph19.3 kmh
Humidity 76% 53% 63%
Pressure 30.30 in1026.1 mb 30.09 in1019.0 mb -
Precipitation 0.00 in0.0 mm - -
Hour Temp Dew Point Humidity Winds Wind Gusts Pressure Precip Precip Rate Daily Precip Total
12:00 AM 54.9°F12.7°C 45.3°F7.4°C 70% 4.6 mph WNW7.4 kmh WNW 14.0 mph22.5 kmh 30.12 in1020.0 mb 0.00 in0.0 mm 0.00 in0.0 mm 0.00 in0.0 mm
12:10 AM 54.9°F12.7°C 45.3°F7.4°C 70% 6.1 mph W9.8 kmh W 15.7 mph25.3 kmh 30.12 in1020.0 mb 0.00 in0.0 mm 0.00 in0.0 mm 0.00 in0.0 mm
12:20 AM 54.9°F12.7°C 45.3°F7.4°C 70% 5.1 mph WNW8.2 kmh WNW 12.2 mph19.6 kmh 30.12 in1020.0 mb 0.00 in0.0 mm 0.00 in0.0 mm 0.00 in0.0 mm
12:30 AM 54.9°F12.7°C 44.9°F7.2°C 69% 6.2 mph WNW10.0 kmh WNW 17.2 mph27.7 kmh 30.12 in1020.0 mb 0.00 in0.0 mm 0.00 in0.0 mm 0.00 in0.0 mm
12:40 AM 54.7°F12.6°C 44.3°F6.8°C 68% 6.5 mph WNW10.5 kmh WNW 15.4 mph24.8 kmh 30.12 in1020.0 mb 0.00 in0.0 mm 0.00 in0.0 mm 0.00 in0.0 mm
12:50 AM 54.5°F12.5°C 44.2°F6.8°C 68% 4.7 mph W7.6 kmh W 11.8 mph19.0 kmh 30.09 in1019.0 mb 0.00 in0.0 mm 0.00 in0.0 mm 0.00 in0.0 mm
01:00 AM 54.3°F12.4°C 43.6°F6.4°C 67% 6.8 mph WNW10.9 kmh WNW 16.8 mph27.0 kmh 30.09 in1019.0 mb 0.00 in0.0 mm 0.00 in0.0 mm 0.00 in0.0 mm
01:10 AM 54.5°F12.5°C 43.8°F6.6°C 67% 5.7 mph WNW9.2 kmh WNW 12.5 mph20.1 kmh 30.09 in1019.0 mb 0.00 in0.0 mm 0.00 in0.0 mm 0.00 in0.0 mm
01:20 AM 54.3°F12.4°C 44.0°F6.7°C 68% 3.5 mph WNW5.6 kmh WNW 8.9 mph14.3 kmh 30.12 in1020.0 mb 0.00 in0.0 mm 0.00 in0.0 mm 0.00 in0.0 mm
01:30 AM 54.3°F12.4°C 44.4°F6.9°C 69% 4.8 mph WNW7.7 kmh WNW 15.0 mph24.1 kmh 30.12 in1020.0 mb 0.00 in0.0 mm 0.00 in0.0 mm 0.00 in0.0 mm
01:40 AM 54.7°F12.6°C 45.5°F7.5°C 71% 5.4 mph WNW8.7 kmh WNW 11.8 mph19.0 kmh 30.12 in1020.0 mb 0.00 in0.0 mm 0.00 in0.0 mm 0.00 in0.0 mm
01:50 AM 54.9°F12.7°C 45.6°F7.6°C 71% 6.9 mph NW11.1 kmh NW 24.3 mph39.1 kmh 30.12 in1020.0 mb 0.00 in0.0 mm 0.00 in0.0 mm 0.00 in0.0 mm
02:00 AM 54.9°F12.7°C 45.3°F7.4°C 70% 6.8 mph WNW10.9 kmh WNW 17.5 mph28.2 kmh 30.15 in1021.0 mb 0.00 in0.0 mm 0.00 in0.0 mm 0.00 in0.0 mm
02:10 AM 54.5°F12.5°C 44.9°F7.2°C 70% 5.3 mph WNW8.5 kmh WNW 14.0 mph22.5 kmh 30.15 in1021.0 mb 0.00 in0.0 mm 0.00 in0.0 mm 0.00 in0.0 mm
02:20 AM 54.5°F12.5°C 44.9°F7.2°C 70% 5.8 mph W9.3 kmh W 15.4 mph24.8 kmh 30.15 in1021.0 mb 0.00 in0.0 mm 0.00 in0.0 mm 0.00 in0.0 mm
02:30 AM 54.1°F12.3°C 44.6°F7.0°C 70% 5.1 mph W8.2 kmh W 13.6 mph21.9 kmh 30.15 in1021.0 mb 0.00 in0.0 mm 0.00 in0.0 mm 0.00 in0.0 mm
02:40 AM 54.0°F12.2°C 44.0°F6.7°C 69% 5.7 mph NW9.2 kmh NW 16.1 mph25.9 kmh 30.15 in1021.0 mb 0.00 in0.0 mm 0.00 in0.0 mm 0.00 in0.0 mm
02:50 AM 53.8°F12.1°C 44.2°F6.8°C 70% 3.7 mph WNW6.0 kmh WNW 11.8 mph19.0 kmh 30.15 in1021.0 mb 0.00 in0.0 mm 0.00 in0.0 mm 0.00 in0.0 mm
03:00 AM 53.8°F12.1°C 44.6°F7.0°C 71% 3.9 mph WNW6.3 kmh WNW 10.4 mph16.7 kmh 30.15 in1021.0 mb 0.00 in0.0 mm 0.00 in0.0 mm 0.00 in0.0 mm
03:10 AM 54.0°F12.2°C 44.8°F7.1°C 71% 6.1 mph W9.8 kmh W 16.8 mph27.0 kmh 30.15 in1021.0 mb 0.00 in0.0 mm 0.00 in0.0 mm 0.00 in0.0 mm
03:20 AM 54.0°F12.2°C 44.8°F7.1°C 71% 4.7 mph WNW7.6 kmh WNW 14.0 mph22.5 kmh 30.15 in1021.0 mb 0.00 in0.0 mm 0.00 in0.0 mm 0.00 in0.0 mm
03:30 AM 54.0°F12.2°C 44.4°F6.9°C 70% 5.5 mph W8.9 kmh W 14.3 mph23.0 kmh 30.15 in1021.0 mb 0.00 in0.0 mm 0.00 in0.0 mm 0.00 in0.0 mm
03:40 AM 54.0°F12.2°C 44.4°F6.9°C 70% 5.0 mph WNW8.0 kmh WNW 16.1 mph25.9 kmh 30.15 in1021.0 mb 0.00 in0.0 mm 0.00 in0.0 mm 0.00 in0.0 mm
03:50 AM 54.1°F12.3°C 44.6°F7.0°C 70% 6.0 mph WNW9.7 kmh WNW 20.8 mph33.5 kmh 30.15 in1021.0 mb 0.00 in0.0 mm 0.00 in0.0 mm 0.00 in0.0 mm
04:00 AM 54.3°F12.4°C 45.1°F7.3°C 71% 4.6 mph W7.4 kmh W 13.6 mph21.9 kmh 30.15 in1021.0 mb 0.00 in0.0 mm 0.00 in0.0 mm 0.00 in0.0 mm
04:10 AM 54.9°F12.7°C 46.0°F7.8°C 72% 4.1 mph NW6.6 kmh NW 16.5 mph26.6 kmh 30.15 in1021.0 mb 0.00 in0.0 mm 0.00 in0.0 mm 0.00 in0.0 mm
04:20 AM 55.2°F12.9°C 46.3°F7.9°C 72% 4.7 mph WNW7.6 kmh WNW 16.1 mph25.9 kmh 30.18 in1022.0 mb 0.00 in0.0 mm 0.00 in0.0 mm 0.00 in0.0 mm
04:30 AM 55.2°F12.9°C 46.3°F7.9°C 72% 5.1 mph WNW8.2 kmh WNW 16.1 mph25.9 kmh 30.18 in1022.0 mb 0.00 in0.0 mm 0.00 in0.0 mm 0.00 in0.0 mm
04:40 AM 55.6°F13.1°C 46.7°F8.2°C 72% 5.1 mph WNW8.2 kmh WNW 15.7 mph25.3 kmh 30.18 in1022.0 mb 0.00 in0.0 mm 0.00 in0.0 mm 0.00 in0.0 mm
04:50 AM 56.1°F13.4°C 46.8°F8.2°C 71% 5.5 mph W8.9 kmh W 17.2 mph27.7 kmh 30.18 in1022.0 mb 0.00 in0.0 mm 0.00 in0.0 mm 0.00 in0.0 mm
05:00 AM 56.1°F13.4°C 46.5°F8.1°C 70% 6.2 mph WNW10.0 kmh WNW 15.4 mph24.8 kmh 30.18 in1022.0 mb 0.00 in0.0 mm 0.00 in0.0 mm 0.00 in0.0 mm
05:10 AM 56.1°F13.4°C 46.5°F8.1°C 70% 4.9 mph WNW7.9 kmh WNW 17.9 mph28.8 kmh 30.18 in1022.0 mb 0.00 in0.0 mm 0.00 in0.0 mm 0.00 in0.0 mm
05:20 AM 56.5°F13.6°C 46.8°F8.2°C 70% 5.2 mph WNW8.4 kmh WNW 15.7 mph25.3 kmh 30.18 in1022.0 mb 0.00 in0.0 mm 0.00 in0.0 mm 0.00 in0.0 mm
05:30 AM 56.8°F13.8°C 46.8°F8.2°C 69% 5.1 mph NW8.2 kmh NW 16.1 mph25.9 kmh 30.18 in1022.0 mb 0.00 in0.0 mm 0.00 in0.0 mm 0.00 in0.0 mm
05:40 AM 56.8°F13.8°C 46.8°F8.2°C 69% 5.1 mph WNW8.2 kmh WNW 13.6 mph21.9 kmh 30.18 in1022.0 mb 0.00 in0.0 mm 0.00 in0.0 mm 0.00 in0.0 mm
05:50 AM 57.2°F14.0°C 47.5°F8.6°C 70% 4.4 mph NW7.1 kmh NW 12.9 mph20.8 kmh 30.21 in1023.0 mb 0.00 in0.0 mm 0.00 in0.0 mm 0.00 in0.0 mm
06:00 AM 57.0°F13.9°C 46.6°F8.1°C 68% 5.7 mph NW9.2 kmh NW 12.5 mph20.1 kmh 30.15 in1021.0 mb 0.00 in0.0 mm 0.00 in0.0 mm 0.00 in0.0 mm
06:10 AM 56.8°F13.8°C 46.0°F7.8°C 67% 5.7 mph WNW9.2 kmh WNW 14.0 mph22.5 kmh 30.15 in1021.0 mb 0.00 in0.0 mm 0.00 in0.0 mm 0.00 in0.0 mm
06:20 AM 57.0°F13.9°C 46.6°F8.1°C 68% 6.1 mph WNW9.8 kmh WNW 15.7 mph25.3 kmh 30.18 in1022.0 mb 0.00 in0.0 mm 0.00 in0.0 mm 0.00 in0.0 mm
06:30 AM 57.4°F14.1°C 46.9°F8.3°C 68% 5.8 mph WNW9.3 kmh WNW 14.0 mph22.5 kmh 30.18 in1022.0 mb 0.00 in0.0 mm 0.00 in0.0 mm 0.00 in0.0 mm
06:40 AM 57.2°F14.0°C 46.3°F7.9°C 67% 6.3 mph WNW10.1 kmh WNW 16.8 mph27.0 kmh 30.18 in1022.0 mb 0.00 in0.0 mm 0.00 in0.0 mm 0.00 in0.0 mm
06:50 AM 57.7°F14.3°C 46.9°F8.3°C 67% 7.8 mph WNW12.6 kmh WNW 17.5 mph28.2 kmh 30.18 in1022.0 mb 0.00 in0.0 mm 0.00 in0.0 mm 0.00 in0.0 mm
07:00 AM 57.9°F14.4°C 45.8°F7.7°C 64% 7.0 mph WNW11.3 kmh WNW 16.1 mph25.9 kmh 30.21 in1023.0 mb 0.00 in0.0 mm 0.00 in0.0 mm 0.00 in0.0 mm
07:10 AM 58.3°F14.6°C 47.0°F8.3°C 66% 5.6 mph NW9.0 kmh NW 11.8 mph19.0 kmh 30.21 in1023.0 mb 0.00 in0.0 mm 0.00 in0.0 mm 0.00 in0.0 mm
07:20 AM 58.1°F14.5°C 46.8°F8.2°C 66% 5.3 mph NW8.5 kmh NW 10.0 mph16.1 kmh 30.21 in1023.0 mb 0.00 in0.0 mm 0.00 in0.0 mm 0.00 in0.0 mm
07:30 AM 58.6°F14.8°C 47.7°F8.7°C 67% 6.1 mph WNW9.8 kmh WNW 15.7 mph25.3 kmh 30.21 in1023.0 mb 0.00 in0.0 mm 0.00 in0.0 mm 0.00 in0.0 mm
07:40 AM 59.4°F15.2°C 48.4°F9.1°C 67% 6.0 mph WNW9.7 kmh WNW 13.6 mph21.9 kmh 30.21 in1023.0 mb 0.00 in0.0 mm 0.00 in0.0 mm 0.00 in0.0 mm
07:50 AM 59.5°F15.3°C 47.8°F8.8°C 65% 7.7 mph W12.4 kmh W 20.4 mph32.8 kmh 30.21 in1023.0 mb 0.00 in0.0 mm 0.00 in0.0 mm 0.00 in0.0 mm
08:00 AM 60.8°F16.0°C 49.4°F9.7°C 66% 6.3 mph W10.1 kmh W 17.2 mph27.7 kmh 30.24 in1024.0 mb 0.00 in0.0 mm 0.00 in0.0 mm 0.00 in0.0 mm
08:10 AM 61.9°F16.6°C 49.6°F9.8°C 64% 5.9 mph NW9.5 kmh NW 15.7 mph25.3 kmh 30.24 in1024.0 mb 0.00 in0.0 mm 0.00 in0.0 mm 0.00 in0.0 mm
08:20 AM 61.3°F16.3°C 49.1°F9.5°C 64% 5.2 mph WNW8.4 kmh WNW 12.9 mph20.8 kmh 30.27 in1025.1 mb 0.00 in0.0 mm 0.00 in0.0 mm 0.00 in0.0 mm
08:30 AM 60.4°F15.8°C 48.2°F9.0°C 64% 5.5 mph W8.9 kmh W 14.0 mph22.5 kmh 30.21 in1023.0 mb 0.00 in0.0 mm 0.00 in0.0 mm 0.00 in0.0 mm
08:40 AM 62.1°F16.7°C 49.3°F9.6°C 63% 6.7 mph WNW10.8 kmh WNW 16.1 mph25.9 kmh 30.21 in1023.0 mb 0.00 in0.0 mm 0.00 in0.0 mm 0.00 in0.0 mm
08:50 AM 62.4°F16.9°C 49.2°F9.6°C 62% 7.5 mph WNW12.1 kmh WNW 20.0 mph32.2 kmh 30.24 in1024.0 mb 0.00 in0.0 mm 0.00 in0.0 mm 0.00 in0.0 mm
09:00 AM 62.6°F17.0°C 48.5°F9.2°C 60% 5.7 mph WNW9.2 kmh WNW 17.2 mph27.7 kmh 30.24 in1024.0 mb 0.00 in0.0 mm 0.00 in0.0 mm 0.00 in0.0 mm
09:10 AM 62.8°F17.1°C 48.7°F9.3°C 60% 6.7 mph NW10.8 kmh NW 16.5 mph26.6 kmh 30.24 in1024.0 mb 0.00 in0.0 mm 0.00 in0.0 mm 0.00 in0.0 mm
09:20 AM 62.2°F16.8°C 47.7°F8.7°C 59% 6.7 mph WNW10.8 kmh WNW 19.7 mph31.7 kmh 30.24 in1024.0 mb 0.00 in0.0 mm 0.00 in0.0 mm 0.00 in0.0 mm
09:30 AM 62.1°F16.7°C 48.9°F9.4°C 62% 6.5 mph NW10.5 kmh NW 15.7 mph25.3 kmh 30.24 in1024.0 mb 0.00 in0.0 mm 0.00 in0.0 mm 0.00 in0.0 mm
09:40 AM 61.9°F16.6°C 48.3°F9.1°C 61% 6.2 mph WNW10.0 kmh WNW 17.9 mph28.8 kmh 30.24 in1024.0 mb 0.00 in0.0 mm 0.00 in0.0 mm 0.00 in0.0 mm
09:50 AM 61.9°F16.6°C 48.3°F9.1°C 61% 5.1 mph WNW8.2 kmh WNW 12.9 mph20.8 kmh 30.24 in1024.0 mb 0.00 in0.0 mm 0.00 in0.0 mm 0.00 in0.0 mm
10:00 AM 62.2°F16.8°C 49.1°F9.5°C 62% 4.9 mph WNW7.9 kmh WNW 11.8 mph19.0 kmh 30.24 in1024.0 mb 0.00 in0.0 mm 0.00 in0.0 mm 0.00 in0.0 mm
10:10 AM 62.4°F16.9°C 48.8°F9.3°C 61% 6.5 mph WNW10.5 kmh WNW 19.3 mph31.1 kmh 30.24 in1024.0 mb 0.00 in0.0 mm 0.00 in0.0 mm 0.00 in0.0 mm
10:20 AM 62.4°F16.9°C 48.8°F9.3°C 61% 5.3 mph NW8.5 kmh NW 15.0 mph24.1 kmh 30.24 in1024.0 mb 0.00 in0.0 mm 0.00 in0.0 mm 0.00 in0.0 mm
10:30 AM 63.1°F17.3°C 49.5°F9.7°C 61% 5.8 mph WNW9.3 kmh WNW 16.1 mph25.9 kmh 30.27 in1025.1 mb 0.00 in0.0 mm 0.00 in0.0 mm 0.00 in0.0 mm
10:40 AM 63.1°F17.3°C 48.1°F8.9°C 58% 6.2 mph WNW10.0 kmh WNW 16.1 mph25.9 kmh 30.27 in1025.1 mb 0.00 in0.0 mm 0.00 in0.0 mm 0.00 in0.0 mm
10:50 AM 63.3°F17.4°C 49.6°F9.8°C 61% 5.0 mph W8.0 kmh W 12.9 mph20.8 kmh 30.27 in1025.1 mb 0.00 in0.0 mm 0.00 in0.0 mm 0.00 in0.0 mm
11:00 AM 63.7°F17.6°C 50.0°F10.0°C 61% 6.4 mph WNW10.3 kmh WNW 16.5 mph26.6 kmh 30.27 in1025.1 mb 0.00 in0.0 mm 0.00 in0.0 mm 0.00 in0.0 mm
11:10 AM 63.7°F17.6°C 50.0°F10.0°C 61% 5.4 mph WNW8.7 kmh WNW 24.3 mph39.1 kmh 30.27 in1025.1 mb 0.00 in0.0 mm 0.00 in0.0 mm 0.00 in0.0 mm
11:20 AM 64.0°F17.8°C 50.8°F10.4°C 62% 5.7 mph W9.2 kmh W 20.4 mph32.8 kmh 30.27 in1025.1 mb 0.00 in0.0 mm 0.00 in0.0 mm 0.00 in0.0 mm
11:30 AM 64.4°F18.0°C 50.2°F10.1°C 60% 5.7 mph W9.2 kmh W 13.6 mph21.9 kmh 30.27 in1025.1 mb 0.00 in0.0 mm 0.00 in0.0 mm 0.00 in0.0 mm
11:40 AM 64.4°F18.0°C 50.2°F10.1°C 60% 5.8 mph WNW9.3 kmh WNW 19.3 mph31.1 kmh 30.27 in1025.1 mb 0.00 in0.0 mm 0.00 in0.0 mm 0.00 in0.0 mm
11:50 AM 64.6°F18.1°C 50.4°F10.2°C 60% 5.7 mph W9.2 kmh W 17.9 mph28.8 kmh 30.27 in1025.1 mb 0.00 in0.0 mm 0.00 in0.0 mm 0.00 in0.0 mm
12:00 PM 64.9°F18.3°C 51.2°F10.7°C 61% 5.4 mph W8.7 kmh W 12.2 mph19.6 kmh 30.27 in1025.1 mb 0.00 in0.0 mm 0.00 in0.0 mm 0.00 in0.0 mm
12:10 PM 64.8°F18.2°C 50.1°F10.1°C 59% 5.5 mph W8.9 kmh W 15.0 mph24.1 kmh 30.27 in1025.1 mb 0.00 in0.0 mm 0.00 in0.0 mm 0.00 in0.0 mm
12:20 PM 64.9°F18.3°C 50.7°F10.4°C 60% 5.7 mph NW9.2 kmh NW 15.4 mph24.8 kmh 30.30 in1026.1 mb 0.00 in0.0 mm 0.00 in0.0 mm 0.00 in0.0 mm
12:30 PM 64.6°F18.1°C 49.5°F9.7°C 58% 5.8 mph NW9.3 kmh NW 17.2 mph27.7 kmh 30.27 in1025.1 mb 0.00 in0.0 mm 0.00 in0.0 mm 0.00 in0.0 mm
12:40 PM 64.4°F18.0°C 50.2°F10.1°C 60% 5.6 mph NW9.0 kmh NW 12.9 mph20.8 kmh 30.27 in1025.1 mb 0.00 in0.0 mm 0.00 in0.0 mm 0.00 in0.0 mm
12:50 PM 64.0°F17.8°C 49.9°F9.9°C 60% 5.6 mph W9.0 kmh W 12.5 mph20.1 kmh 30.30 in1026.1 mb 0.00 in0.0 mm 0.00 in0.0 mm 0.00 in0.0 mm
01:00 PM 64.2°F17.9°C 50.0°F10.0°C 60% 4.8 mph W7.7 kmh W 9.3 mph15.0 kmh 30.30 in1026.1 mb 0.00 in0.0 mm 0.00 in0.0 mm 0.00 in0.0 mm
01:10 PM 64.4°F18.0°C 49.8°F9.9°C 59% 5.3 mph W8.5 kmh W 12.9 mph20.8 kmh 30.30 in1026.1 mb 0.00 in0.0 mm 0.00 in0.0 mm 0.00 in0.0 mm
01:20 PM 64.6°F18.1°C 49.5°F9.7°C 58% 5.5 mph NW8.9 kmh NW 16.5 mph26.6 kmh 30.30 in1026.1 mb 0.00 in0.0 mm 0.00 in0.0 mm 0.00 in0.0 mm
01:30 PM 63.9°F17.7°C 48.8°F9.3°C 58% 5.8 mph WNW9.3 kmh WNW 14.0 mph22.5 kmh 30.30 in1026.1 mb 0.00 in0.0 mm 0.00 in0.0 mm 0.00 in0.0 mm
01:40 PM 63.9°F17.7°C 48.8°F9.3°C 58% 5.4 mph W8.7 kmh W 16.8 mph27.0 kmh 30.30 in1026.1 mb 0.00 in0.0 mm 0.00 in0.0 mm 0.00 in0.0 mm
01:50 PM 63.9°F17.7°C 49.2°F9.6°C 59% 4.6 mph W7.4 kmh W 10.4 mph16.7 kmh 30.30 in1026.1 mb 0.00 in0.0 mm 0.00 in0.0 mm 0.00 in0.0 mm
02:00 PM 63.7°F17.6°C 48.2°F9.0°C 57% 5.1 mph W8.2 kmh W 12.5 mph20.1 kmh 30.30 in1026.1 mb 0.00 in0.0 mm 0.00 in0.0 mm 0.00 in0.0 mm
02:10 PM 63.7°F17.6°C 47.7°F8.7°C 56% 5.1 mph WNW8.2 kmh WNW 16.1 mph25.9 kmh 30.30 in1026.1 mb 0.00 in0.0 mm 0.00 in0.0 mm 0.00 in0.0 mm
02:20 PM 63.5°F17.5°C 47.5°F8.6°C 56% 6.1 mph WNW9.8 kmh WNW 16.8 mph27.0 kmh 30.30 in1026.1 mb 0.00 in0.0 mm 0.00 in0.0 mm 0.00 in0.0 mm
02:30 PM 63.9°F17.7°C 48.8°F9.3°C 58% 4.4 mph WNW7.1 kmh WNW 12.9 mph20.8 kmh 30.30 in1026.1 mb 0.00 in0.0 mm 0.00 in0.0 mm 0.00 in0.0 mm
02:40 PM 63.9°F17.7°C 47.9°F8.8°C 56% 6.0 mph W9.7 kmh W 14.7 mph23.7 kmh 30.30 in1026.1 mb 0.00 in0.0 mm 0.00 in0.0 mm 0.00 in0.0 mm
02:50 PM 63.7°F17.6°C 47.7°F8.7°C 56% 5.3 mph W8.5 kmh W 11.8 mph19.0 kmh 30.30 in1026.1 mb 0.00 in0.0 mm 0.00 in0.0 mm 0.00 in0.0 mm
03:00 PM 63.7°F17.6°C 47.2°F8.4°C 55% 4.8 mph WNW7.7 kmh WNW 14.0 mph22.5 kmh 30.30 in1026.1 mb 0.00 in0.0 mm 0.00 in0.0 mm 0.00 in0.0 mm
03:10 PM 64.0°F17.8°C 48.5°F9.2°C 57% 5.5 mph NW8.9 kmh NW 12.5 mph20.1 kmh 30.30 in1026.1 mb 0.00 in0.0 mm 0.00 in0.0 mm 0.00 in0.0 mm
03:20 PM 64.4°F18.0°C 48.8°F9.3°C 57% 5.0 mph NW8.0 kmh NW 13.6 mph21.9 kmh 30.27 in1025.1 mb 0.00 in0.0 mm 0.00 in0.0 mm 0.00 in0.0 mm
03:30 PM 64.6°F18.1°C 48.5°F9.2°C 56% 3.9 mph W6.3 kmh W 8.6 mph13.8 kmh 30.30 in1026.1 mb 0.00 in0.0 mm 0.00 in0.0 mm 0.00 in0.0 mm
03:40 PM 64.4°F18.0°C 47.9°F8.8°C 55% 6.1 mph W9.8 kmh W 16.1 mph25.9 kmh 30.30 in1026.1 mb 0.00 in0.0 mm 0.00 in0.0 mm 0.00 in0.0 mm
03:50 PM 64.2°F17.9°C 47.2°F8.4°C 54% 6.1 mph NW9.8 kmh NW 15.7 mph25.3 kmh 30.30 in1026.1 mb 0.00 in0.0 mm 0.00 in0.0 mm 0.00 in0.0 mm
04:00 PM 64.6°F18.1°C 48.0°F8.9°C 55% 5.3 mph NW8.5 kmh NW 13.6 mph21.9 kmh 30.27 in1025.1 mb 0.00 in0.0 mm 0.00 in0.0 mm 0.00 in0.0 mm
04:10 PM 64.2°F17.9°C 46.7°F8.2°C 53% 5.0 mph WNW8.0 kmh WNW 17.2 mph27.7 kmh 30.27 in1025.1 mb 0.00 in0.0 mm 0.00 in0.0 mm 0.00 in0.0 mm
04:20 PM 64.0°F17.8°C 46.6°F8.1°C 53% 6.2 mph NW10.0 kmh NW 16.8 mph27.0 kmh 30.27 in1025.1 mb 0.00 in0.0 mm 0.00 in0.0 mm 0.00 in0.0 mm
04:30 PM 64.8°F18.2°C 48.2°F9.0°C 55% 4.4 mph W7.1 kmh W 10.0 mph16.1 kmh 30.27 in1025.1 mb 0.00 in0.0 mm 0.00 in0.0 mm 0.00 in0.0 mm
04:40 PM 64.8°F18.2°C 47.7°F8.7°C 54% 6.0 mph WNW9.7 kmh WNW 13.6 mph21.9 kmh 30.27 in1025.1 mb 0.00 in0.0 mm 0.00 in0.0 mm 0.00 in0.0 mm
04:50 PM 64.9°F18.3°C 47.4°F8.6°C 53% 5.0 mph WNW8.0 kmh WNW 11.1 mph17.9 kmh 30.27 in1025.1 mb 0.00 in0.0 mm 0.00 in0.0 mm 0.00 in0.0 mm
05:00 PM 65.3°F18.5°C 48.2°F9.0°C 54% 4.5 mph WNW7.2 kmh WNW 11.8 mph19.0 kmh 30.30 in1026.1 mb 0.00 in0.0 mm 0.00 in0.0 mm 0.00 in0.0 mm
05:10 PM 65.3°F18.5°C 47.7°F8.7°C 53% 5.3 mph W8.5 kmh W 10.0 mph16.1 kmh 30.30 in1026.1 mb 0.00 in0.0 mm 0.00 in0.0 mm 0.00 in0.0 mm
05:20 PM 65.7°F18.7°C 48.1°F8.9°C 53% 4.7 mph NW7.6 kmh NW 12.5 mph20.1 kmh 30.27 in1025.1 mb 0.00 in0.0 mm 0.00 in0.0 mm 0.00 in0.0 mm
05:30 PM 65.5°F18.6°C 48.4°F9.1°C 54% 4.2 mph WNW6.8 kmh WNW 13.6 mph21.9 kmh 30.30 in1026.1 mb 0.00 in0.0 mm 0.00 in0.0 mm 0.00 in0.0 mm
05:40 PM 65.5°F18.6°C 48.4°F9.1°C 54% 3.7 mph WNW6.0 kmh WNW 13.6 mph21.9 kmh 30.30 in1026.1 mb 0.00 in0.0 mm 0.00 in0.0 mm 0.00 in0.0 mm
05:50 PM 65.7°F18.7°C 48.6°F9.2°C 54% 3.8 mph W6.1 kmh W 11.8 mph19.0 kmh 30.30 in1026.1 mb 0.00 in0.0 mm 0.00 in0.0 mm 0.00 in0.0 mm
06:00 PM 65.1°F18.4°C 47.6°F8.7°C 53% 3.9 mph W6.3 kmh W 12.2 mph19.6 kmh 30.30 in1026.1 mb 0.00 in0.0 mm 0.00 in0.0 mm 0.00 in0.0 mm
06:10 PM 65.1°F18.4°C 48.1°F8.9°C 54% 2.6 mph WNW4.2 kmh WNW 6.8 mph10.9 kmh 30.30 in1026.1 mb 0.00 in0.0 mm 0.00 in0.0 mm 0.00 in0.0 mm
06:20 PM 65.3°F18.5°C 48.2°F9.0°C 54% 3.6 mph NW5.8 kmh NW 10.0 mph16.1 kmh 30.30 in1026.1 mb 0.00 in0.0 mm 0.00 in0.0 mm 0.00 in0.0 mm
06:30 PM 65.3°F18.5°C 47.7°F8.7°C 53% 3.6 mph WNW5.8 kmh WNW 10.7 mph17.2 kmh 30.27 in1025.1 mb 0.00 in0.0 mm 0.00 in0.0 mm 0.00 in0.0 mm
06:40 PM 64.6°F18.1°C 47.1°F8.4°C 53% 2.8 mph NW4.5 kmh NW 8.9 mph14.3 kmh 30.27 in1025.1 mb 0.00 in0.0 mm 0.00 in0.0 mm 0.00 in0.0 mm
06:50 PM 64.8°F18.2°C 47.7°F8.7°C 54% 1.6 mph WNW2.6 kmh WNW 6.1 mph9.8 kmh 30.27 in1025.1 mb 0.00 in0.0 mm 0.00 in0.0 mm 0.00 in0.0 mm
07:00 PM 64.8°F18.2°C 47.2°F8.4°C 53% 4.6 mph WNW7.4 kmh WNW 10.4 mph16.7 kmh 30.27 in1025.1 mb 0.00 in0.0 mm 0.00 in0.0 mm 0.00 in0.0 mm
07:10 PM 63.0°F17.2°C 46.0°F7.8°C 54% 1.6 mph W2.6 kmh W 8.6 mph13.8 kmh 30.27 in1025.1 mb 0.00 in0.0 mm 0.00 in0.0 mm 0.00 in0.0 mm
07:20 PM 61.9°F16.6°C 45.5°F7.5°C 55% 2.0 mph NW3.2 kmh NW 6.8 mph10.9 kmh 30.30 in1026.1 mb 0.00 in0.0 mm 0.00 in0.0 mm 0.00 in0.0 mm
07:30 PM 61.2°F16.2°C 45.3°F7.4°C 56% 3.0 mph WNW4.8 kmh WNW 8.9 mph14.3 kmh 30.27 in1025.1 mb 0.00 in0.0 mm 0.00 in0.0 mm 0.00 in0.0 mm
07:40 PM 60.6°F15.9°C 45.3°F7.4°C 57% 1.6 mph WNW2.6 kmh WNW 7.9 mph12.7 kmh 30.27 in1025.1 mb 0.00 in0.0 mm 0.00 in0.0 mm 0.00 in0.0 mm
07:50 PM 60.1°F15.6°C 44.8°F7.1°C 57% 1.5 mph WNW2.4 kmh WNW 6.1 mph9.8 kmh 30.27 in1025.1 mb 0.00 in0.0 mm 0.00 in0.0 mm 0.00 in0.0 mm
08:00 PM 59.7°F15.4°C 45.4°F7.4°C 59% 0.1 mph W0.2 kmh W 2.5 mph4.0 kmh 30.27 in1025.1 mb 0.00 in0.0 mm 0.00 in0.0 mm 0.00 in0.0 mm
08:10 PM 59.0°F15.0°C 44.7°F7.1°C 59% 0.1 mph NNW0.2 kmh NNW 3.9 mph6.3 kmh 30.27 in1025.1 mb 0.00 in0.0 mm 0.00 in0.0 mm 0.00 in0.0 mm
08:20 PM 58.6°F14.8°C 45.2°F7.3°C 61% 0.2 mph W0.3 kmh W 2.5 mph4.0 kmh 30.27 in1025.1 mb 0.00 in0.0 mm 0.00 in0.0 mm 0.00 in0.0 mm
08:30 PM 58.1°F14.5°C 44.7°F7.1°C 61% Calm Calm -- 30.27 in1025.1 mb 0.00 in0.0 mm 0.00 in0.0 mm 0.00 in0.0 mm
08:40 PM 57.0°F13.9°C 44.1°F6.7°C 62% Calm Calm -- 30.27 in1025.1 mb 0.00 in0.0 mm 0.00 in0.0 mm 0.00 in0.0 mm
08:50 PM 56.1°F13.4°C 43.7°F6.5°C 63% Calm Calm -- 30.27 in1025.1 mb 0.00 in0.0 mm 0.00 in0.0 mm 0.00 in0.0 mm
09:00 PM 55.4°F13.0°C 43.4°F6.3°C 64% Calm Calm -- 30.30 in1026.1 mb 0.00 in0.0 mm 0.00 in0.0 mm 0.00 in0.0 mm
09:10 PM 55.0°F12.8°C 43.5°F6.4°C 65% Calm Calm -- 30.30 in1026.1 mb 0.00 in0.0 mm 0.00 in0.0 mm 0.00 in0.0 mm
09:20 PM 54.3°F12.4°C 43.2°F6.2°C 66% Calm Calm -- 30.27 in1025.1 mb 0.00 in0.0 mm 0.00 in0.0 mm 0.00 in0.0 mm
09:30 PM 54.0°F12.2°C 43.2°F6.2°C 67% Calm Calm -- 30.30 in1026.1 mb 0.00 in0.0 mm 0.00 in0.0 mm 0.00 in0.0 mm
09:40 PM 53.6°F12.0°C 43.3°F6.3°C 68% Calm Calm -- 30.30 in1026.1 mb 0.00 in0.0 mm 0.00 in0.0 mm 0.00 in0.0 mm
09:50 PM 53.2°F11.8°C 43.3°F6.3°C 69% Calm Calm -- 30.30 in1026.1 mb 0.00 in0.0 mm 0.00 in0.0 mm 0.00 in0.0 mm
10:00 PM 52.9°F11.6°C 43.4°F6.3°C 70% Calm Calm -- 30.30 in1026.1 mb 0.00 in0.0 mm 0.00 in0.0 mm 0.00 in0.0 mm
10:10 PM 52.5°F11.4°C 43.4°F6.3°C 71% Calm Calm -- 30.30 in1026.1 mb 0.00 in0.0 mm 0.00 in0.0 mm 0.00 in0.0 mm
10:20 PM 52.3°F11.3°C 43.2°F6.2°C 71% Calm Calm -- 30.30 in1026.1 mb 0.00 in0.0 mm 0.00 in0.0 mm 0.00 in0.0 mm
10:30 PM 52.2°F11.2°C 43.8°F6.6°C 73% 0.4 mph W0.6 kmh W 5.0 mph8.0 kmh 30.30 in1026.1 mb 0.00 in0.0 mm 0.00 in0.0 mm 0.00 in0.0 mm
10:40 PM 52.0°F11.1°C 43.2°F6.2°C 72% 0.4 mph N0.6 kmh N 5.7 mph9.2 kmh 30.30 in1026.1 mb 0.00 in0.0 mm 0.00 in0.0 mm 0.00 in0.0 mm
10:50 PM 51.3°F10.7°C 42.9°F6.1°C 73% Calm Calm -- 30.30 in1026.1 mb 0.00 in0.0 mm 0.00 in0.0 mm 0.00 in0.0 mm
11:00 PM 51.4°F10.8°C 43.4°F6.3°C 74% Calm Calm -- 30.30 in1026.1 mb 0.00 in0.0 mm 0.00 in0.0 mm 0.00 in0.0 mm
11:10 PM 51.4°F10.8°C 43.4°F6.3°C 74% Calm Calm -- 30.30 in1026.1 mb 0.00 in0.0 mm 0.00 in0.0 mm 0.00 in0.0 mm
11:20 PM 51.3°F10.7°C 43.3°F6.3°C 74% Calm Calm -- 30.30 in1026.1 mb 0.00 in0.0 mm 0.00 in0.0 mm 0.00 in0.0 mm
11:30 PM 50.9°F10.5°C 42.9°F6.1°C 74% 0.1 mph S0.2 kmh S 2.1 mph3.4 kmh 30.30 in1026.1 mb 0.00 in0.0 mm 0.00 in0.0 mm 0.00 in0.0 mm
11:40 PM 50.4°F10.2°C 43.1°F6.2°C 76% Calm Calm -- 30.30 in1026.1 mb 0.00 in0.0 mm 0.00 in0.0 mm 0.00 in0.0 mm
11:50 PM 50.0°F10.0°C 42.7°F5.9°C 76% Calm Calm -- 30.30 in1026.1 mb 0.00 in0.0 mm 0.00 in0.0 mm 0.00 in0.0 mm